Time;durP1;ratioP1;P1;durP2;ratioP2;P2;SDS_P1;SDS_P2;PMS_P1;PMS_P2;Temp;Humidity;BMP_temperature;BMP_pressure;BME280_temperature;BME280_humidity;BME280_pressure;Samples;Min_cycle;Max_cycle;Signal;HPM_P1;HPM_P2
2023/06/10 00:02:20;;;;;;;;;;;;;;;;;;5075385;28;19912;-74
2023/06/10 00:04:46;;;;;;;;;;;;;;;;;;5075419;28;20271;-73
2023/06/10 00:07:11;;;;;;;;;;;;;;;;;;5075107;28;19912;-73
2023/06/10 00:09:40;;;;;;;;;;;;;;;;;;5075281;28;19912;-73
2023/06/10 00:12:06;;;;;;;;;;;;;;;;;;5074062;28;20375;-73
2023/06/10 00:14:32;;;;;;;;;;;;;;;;;;5075291;28;20374;-73
2023/06/10 00:16:57;;;;;;;;;;;;;;;;;;5075092;28;19912;-73
2023/06/10 00:19:25;;;;;;;;;;;;;;;;;;5075092;28;19969;-73
2023/06/10 00:21:51;;;;;;;;;;;;;;;;;;5074813;28;19908;-73
2023/06/10 00:24:16;;;;;;;;;;;;;;;;;;5075456;28;20249;-73
2023/06/10 00:26:41;;;;;;;;;;;;;;;;;;5075103;28;19916;-73
2023/06/10 00:29:07;;;;;;;;;;;;;;;;;;5075062;28;19962;-73
2023/06/10 00:31:32;;;;;;;;;;;;;;;;;;5074799;28;19916;-74
2023/06/10 00:33:58;;;;;;;;;;;;;;;;;;5056303;28;20388;-73
2023/06/10 00:36:24;;;;;;;;;;;;;;;;;;5068390;28;19916;-74
2023/06/10 00:38:49;;;;;;;;;;;;;;;;;;5071702;28;20053;-74
2023/06/10 00:41:14;;;;;;;;;;;;;;;;;;5069856;28;20367;-74
2023/06/10 00:43:39;;;;;;;;;;;;;;;;;;5036663;28;19913;-74
2023/06/10 00:46:05;;;;;;;;;;;;;;;;;;5041957;28;19920;-74
2023/06/10 00:48:30;;;;;;;;;;;;;;;;;;5046031;28;20364;-74
2023/06/10 00:50:56;;;;;;;;;;;;;;;;;;5059596;28;19917;-74
2023/06/10 00:53:21;;;;;;;;;;;;;;;;;;5036179;28;19952;-74
2023/06/10 00:55:46;;;;;;;;;;;;;;;;;;5043612;28;19995;-74
2023/06/10 00:58:12;;;;;;;;;;;;;;;;;;5045478;28;19909;-73
2023/06/10 01:00:37;;;;;;;;;;;;;;;;;;5053312;28;19959;-73
2023/06/10 01:03:07;;;;;;;;;;;;;;;;;;5057061;28;19912;-74
2023/06/10 01:05:32;;;;;;;;;;;;;;;;;;5034336;28;19931;-74
2023/06/10 01:07:57;;;;;;;;;;;;;;;;;;5051985;28;19943;-74
2023/06/10 01:10:23;;;;;;;;;;;;;;;;;;5051854;28;19924;-74
2023/06/10 01:12:48;;;;;;;;;;;;;;;;;;5051187;28;19999;-74
2023/06/10 01:15:14;;;;;;;;;;;;;;;;;;5050845;28;19924;-74
2023/06/10 01:17:39;;;;;;;;;;;;;;;;;;5052331;28;19908;-73
2023/06/10 01:20:04;;;;;;;;;;;;;;;;;;5036008;28;19966;-74
2023/06/10 01:22:32;;;;;;;;;;;;;;;;;;5053209;28;19935;-75
2023/06/10 01:25:03;;;;;;;;;;;;;;;;;;5036487;28;19913;-74
2023/06/10 01:27:29;;;;;;;;;;;;;;;;;;5054082;28;19924;-74
2023/06/10 01:29:55;;;;;;;;;;;;;;;;;;5035939;28;19919;-74
2023/06/10 01:32:21;;;;;;;;;;;;;;;;;;5071234;28;19916;-75
2023/06/10 01:34:46;;;;;;;;;;;;;;;;;;5073850;28;19935;-75
2023/06/10 01:37:12;;;;;;;;;;;;;;;;;;5073592;28;19908;-74
2023/06/10 01:39:38;;;;;;;;;;;;;;;;;;5055819;28;20279;-74
2023/06/10 01:42:04;;;;;;;;;;;;;;;;;;5073784;28;19912;-74
2023/06/10 01:44:29;;;;;;;;;;;;;;;;;;5055707;28;19908;-75
2023/06/10 01:46:54;;;;;;;;;;;;;;;;;;5055975;28;19920;-74
2023/06/10 01:49:21;;;;;;;;;;;;;;;;;;5055497;28;19920;-74
2023/06/10 01:51:47;;;;;;;;;;;;;;;;;;5073384;28;19964;-74
2023/06/10 01:54:12;;;;;;;;;;;;;;;;;;5073685;28;19919;-74
2023/06/10 01:56:38;;;;;;;;;;;;;;;;;;5055685;28;19912;-73
2023/06/10 01:59:03;;;;;;;;;;;;;;;;;;5055750;28;19912;-75
2023/06/10 02:01:28;;;;;;;;;;;;;;;;;;5072130;28;20413;-74
2023/06/10 02:03:54;;;;;;;;;;;;;;;;;;5073430;28;19912;-74
2023/06/10 02:06:19;;;;;;;;;;;;;;;;;;5071920;28;19918;-74
2023/06/10 02:08:44;;;;;;;;;;;;;;;;;;5071945;28;19922;-74
2023/06/10 02:11:10;;;;;;;;;;;;;;;;;;5073482;28;19916;-74
2023/06/10 02:13:35;;;;;;;;;;;;;;;;;;5073292;28;20364;-74
2023/06/10 02:16:01;;;;;;;;;;;;;;;;;;5072982;28;19912;-74
2023/06/10 02:18:28;;;;;;;;;;;;;;;;;;5073251;28;19951;-74
2023/06/10 02:20:53;;;;;;;;;;;;;;;;;;5073139;28;19954;-74
2023/06/10 02:23:18;;;;;;;;;;;;;;;;;;5055069;28;19916;-74
2023/06/10 02:25:44;;;;;;;;;;;;;;;;;;5073306;28;20351;-75
2023/06/10 02:28:09;;;;;;;;;;;;;;;;;;5055702;28;19959;-73
2023/06/10 02:30:35;;;;;;;;;;;;;;;;;;5072994;28;19916;-73
2023/06/10 02:33:01;;;;;;;;;;;;;;;;;;5071830;28;20383;-73
2023/06/10 02:35:26;;;;;;;;;;;;;;;;;;5054051;28;20342;-73
2023/06/10 02:37:52;;;;;;;;;;;;;;;;;;5054832;28;19920;-74
2023/06/10 02:40:18;;;;;;;;;;;;;;;;;;5055019;28;19991;-74
2023/06/10 02:42:44;;;;;;;;;;;;;;;;;;5073152;28;20058;-74
2023/06/10 02:45:09;;;;;;;;;;;;;;;;;;5071547;28;20351;-73
2023/06/10 02:47:39;;;;;;;;;;;;;;;;;;5071506;28;19999;-74
2023/06/10 02:50:06;;;;;;;;;;;;;;;;;;5071390;28;19923;-74
2023/06/10 02:52:35;;;;;;;;;;;;;;;;;;5070521;28;19920;-74
2023/06/10 02:55:00;;;;;;;;;;;;;;;;;;5071685;28;19912;-74
2023/06/10 02:57:26;;;;;;;;;;;;;;;;;;5071481;28;19912;-74
2023/06/10 02:59:53;;;;;;;;;;;;;;;;;;5071290;28;19913;-75
2023/06/10 03:02:18;;;;;;;;;;;;;;;;;;5051737;28;19980;-76
2023/06/10 03:04:50;;;;;;;;;;;;;;;;;;5050755;28;19963;-75
2023/06/10 03:07:17;;;;;;;;;;;;;;;;;;5034466;28;19912;-74
2023/06/10 03:09:43;;;;;;;;;;;;;;;;;;5068475;28;19912;-74
2023/06/10 03:12:10;;;;;;;;;;;;;;;;;;5050142;28;19916;-75
2023/06/10 03:14:39;;;;;;;;;;;;;;;;;;5066732;28;20367;-75
2023/06/10 03:17:05;;;;;;;;;;;;;;;;;;5050386;28;19927;-74
2023/06/10 03:19:33;;;;;;;;;;;;;;;;;;5050084;28;19908;-75
2023/06/10 03:21:59;;;;;;;;;;;;;;;;;;5050298;28;19919;-75
2023/06/10 03:24:25;;;;;;;;;;;;;;;;;;5050267;28;19912;-74
2023/06/10 03:26:50;;;;;;;;;;;;;;;;;;5050024;28;19920;-74
2023/06/10 03:29:16;;;;;;;;;;;;;;;;;;5033863;28;19908;-74
2023/06/10 03:31:41;;;;;;;;;;;;;;;;;;5050097;28;20287;-75
2023/06/10 03:34:07;;;;;;;;;;;;;;;;;;5050350;28;19916;-75
2023/06/10 03:36:32;;;;;;;;;;;;;;;;;;5050228;28;19915;-75
2023/06/10 03:38:58;;;;;;;;;;;;;;;;;;5051008;28;19920;-75
2023/06/10 03:41:25;;;;;;;;;;;;;;;;;;5044080;28;19954;-75
2023/06/10 03:43:50;;;;;;;;;;;;;;;;;;5062802;28;19992;-74
2023/06/10 03:46:17;;;;;;;;;;;;;;;;;;5061177;28;19968;-74
2023/06/10 03:48:42;;;;;;;;;;;;;;;;;;5053480;28;19917;-74
2023/06/10 03:51:07;;;;;;;;;;;;;;;;;;5065211;28;20394;-74
2023/06/10 03:53:33;;;;;;;;;;;;;;;;;;5033690;28;19967;-74
2023/06/10 03:55:58;;;;;;;;;;;;;;;;;;5033632;28;19913;-74
2023/06/10 03:58:25;;;;;;;;;;;;;;;;;;5033537;28;19908;-75
2023/06/10 04:00:51;;;;;;;;;;;;;;;;;;5033353;28;19973;-74
2023/06/10 04:03:16;;;;;;;;;;;;;;;;;;5051558;28;20340;-74
2023/06/10 04:05:48;;;;;;;;;;;;;;;;;;5033399;28;19916;-74
2023/06/10 04:08:13;;;;;;;;;;;;;;;;;;5033036;28;19912;-74
2023/06/10 04:10:38;;;;;;;;;;;;;;;;;;5033168;28;19921;-75
2023/06/10 04:13:03;;;;;;;;;;;;;;;;;;5033255;28;19913;-75
2023/06/10 04:15:34;;;;;;;;;;;;;;;;;;5033301;28;19920;-75
2023/06/10 04:18:03;;;;;;;;;;;;;;;;;;5032709;28;19913;-74
2023/06/10 04:20:28;;;;;;;;;;;;;;;;;;5033349;28;19923;-75
2023/06/10 04:22:54;;;;;;;;;;;;;;;;;;5051419;28;19919;-74
2023/06/10 04:25:20;;;;;;;;;;;;;;;;;;5033640;28;20425;-74
2023/06/10 04:27:47;;;;;;;;;;;;;;;;;;5033456;28;19920;-74
2023/06/10 04:30:12;;;;;;;;;;;;;;;;;;5032725;28;19912;-75
2023/06/10 04:32:38;;;;;;;;;;;;;;;;;;5033141;28;19916;-75
2023/06/10 04:35:06;;;;;;;;;;;;;;;;;;5032872;28;19921;-75
2023/06/10 04:37:31;;;;;;;;;;;;;;;;;;5033008;28;20344;-74
2023/06/10 04:39:57;;;;;;;;;;;;;;;;;;5050854;28;20367;-75
2023/06/10 04:42:22;;;;;;;;;;;;;;;;;;5032706;28;19912;-75
2023/06/10 04:44:48;;;;;;;;;;;;;;;;;;5033369;28;19967;-75
2023/06/10 04:47:13;;;;;;;;;;;;;;;;;;5032847;28;19919;-75
2023/06/10 04:49:38;;;;;;;;;;;;;;;;;;5032666;28;20015;-75
2023/06/10 04:52:04;;;;;;;;;;;;;;;;;;5052041;28;19916;-75
2023/06/10 04:54:33;;;;;;;;;;;;;;;;;;5052185;28;19942;-75
2023/06/10 04:57:00;;;;;;;;;;;;;;;;;;5069836;28;19951;-75
2023/06/10 04:59:25;;;;;;;;;;;;;;;;;;5070719;28;20364;-75
2023/06/10 05:01:50;;;;;;;;;;;;;;;;;;5070646;28;19919;-75
2023/06/10 05:04:16;;;;;;;;;;;;;;;;;;5069869;28;20357;-76
2023/06/10 05:06:41;;;;;;;;;;;;;;;;;;5070448;28;19912;-75
2023/06/10 05:09:06;;;;;;;;;;;;;;;;;;5070337;28;20288;-75
2023/06/10 05:11:32;;;;;;;;;;;;;;;;;;5070557;28;19924;-75
2023/06/10 05:13:57;;;;;;;;;;;;;;;;;;5070531;28;19913;-75
2023/06/10 05:16:22;;;;;;;;;;;;;;;;;;5069907;28;20324;-75
2023/06/10 05:18:47;;;;;;;;;;;;;;;;;;5070061;28;19917;-75
2023/06/10 05:21:13;;;;;;;;;;;;;;;;;;5070528;28;20348;-75
2023/06/10 05:23:38;;;;;;;;;;;;;;;;;;5070238;28;19931;-75
2023/06/10 05:26:04;;;;;;;;;;;;;;;;;;5069915;28;19962;-75
2023/06/10 05:28:29;;;;;;;;;;;;;;;;;;5070332;28;19912;-75
2023/06/10 05:30:54;;;;;;;;;;;;;;;;;;5070129;28;19917;-75
2023/06/10 05:33:19;;;;;;;;;;;;;;;;;;5069884;28;20331;-75
2023/06/10 05:35:45;;;;;;;;;;;;;;;;;;5070141;28;19923;-75
2023/06/10 05:38:10;;;;;;;;;;;;;;;;;;5069805;28;20357;-75
2023/06/10 05:40:35;;;;;;;;;;;;;;;;;;5069983;28;19912;-75
2023/06/10 05:43:00;;;;;;;;;;;;;;;;;;5051966;28;19956;-75
2023/06/10 05:45:25;;;;;;;;;;;;;;;;;;5069956;28;20368;-75
2023/06/10 05:47:51;;;;;;;;;;;;;;;;;;5051874;28;20003;-75
2023/06/10 05:50:16;;;;;;;;;;;;;;;;;;5051425;28;19946;-75
2023/06/10 05:52:42;;;;;;;;;;;;;;;;;;5069732;28;20340;-76
2023/06/10 05:55:07;;;;;;;;;;;;;;;;;;5068693;28;20996;-76
2023/06/10 05:57:32;;;;;;;;;;;;;;;;;;5067717;28;19962;-75
2023/06/10 05:59:57;;;;;;;;;;;;;;;;;;5067911;28;19920;-75
2023/06/10 06:02:23;;;;;;;;;;;;;;;;;;5067274;28;19974;-75
2023/06/10 06:04:48;;;;;;;;;;;;;;;;;;5067242;28;20281;-76
2023/06/10 06:07:13;;;;;;;;;;;;;;;;;;5067286;28;19967;-76
2023/06/10 06:09:38;;;;;;;;;;;;;;;;;;5067493;28;19916;-76
2023/06/10 06:12:06;;;;;;;;;;;;;;;;;;5062679;28;20070;-76
2023/06/10 06:14:31;;;;;;;;;;;;;;;;;;5049541;28;19920;-75
2023/06/10 06:16:57;;;;;;;;;;;;;;;;;;5066825;28;20372;-75
2023/06/10 06:19:22;;;;;;;;;;;;;;;;;;5066967;28;20520;-75
2023/06/10 06:21:47;;;;;;;;;;;;;;;;;;5050823;28;19924;-75
2023/06/10 06:24:12;;;;;;;;;;;;;;;;;;5047008;28;20461;-75
2023/06/10 06:26:38;;;;;;;;;;;;;;;;;;5047120;28;20383;-75
2023/06/10 06:29:03;;;;;;;;;;;;;;;;;;5047378;28;19913;-75
2023/06/10 06:31:28;;;;;;;;;;;;;;;;;;5046741;28;19932;-75
2023/06/10 06:33:54;;;;;;;;;;;;;;;;;;5029164;28;19916;-75
2023/06/10 06:36:19;;;;;;;;;;;;;;;;;;5028988;28;19917;-75
2023/06/10 06:38:44;;;;;;;;;;;;;;;;;;5047086;28;19916;-75
2023/06/10 06:41:09;;;;;;;;;;;;;;;;;;5029179;28;20023;-75
2023/06/10 06:43:35;;;;;;;;;;;;;;;;;;5033741;28;19916;-75
2023/06/10 06:46:22;;;;;;;;;;;;;;;;;;5048497;28;19913;-75
2023/06/10 06:48:47;;;;;;;;;;;;;;;;;;5048696;28;19912;-74
2023/06/10 06:51:13;;;;;;;;;;;;;;;;;;5031528;28;19924;-75
2023/06/10 06:53:44;;;;;;;;;;;;;;;;;;5058248;28;19920;-75
2023/06/10 06:56:09;;;;;;;;;;;;;;;;;;5069037;28;19921;-75
2023/06/10 06:58:34;;;;;;;;;;;;;;;;;;5069007;28;19915;-75
2023/06/10 07:00:59;;;;;;;;;;;;;;;;;;5050907;28;19925;-75
2023/06/10 07:03:25;;;;;;;;;;;;;;;;;;5068482;28;19944;-76
2023/06/10 07:05:50;;;;;;;;;;;;;;;;;;5068959;28;19951;-75
2023/06/10 07:08:15;;;;;;;;;;;;;;;;;;5068548;28;19923;-76
2023/06/10 07:10:40;;;;;;;;;;;;;;;;;;5050548;28;19936;-74
2023/06/10 07:13:06;;;;;;;;;;;;;;;;;;5068471;28;19919;-74
2023/06/10 07:15:32;;;;;;;;;;;;;;;;;;5069283;28;19919;-75
2023/06/10 07:17:57;;;;;;;;;;;;;;;;;;5072165;28;19919;-74
2023/06/10 07:20:23;;;;;;;;;;;;;;;;;;5050886;28;19916;-74
2023/06/10 07:22:48;;;;;;;;;;;;;;;;;;5071396;28;20390;-74
2023/06/10 07:25:13;;;;;;;;;;;;;;;;;;5072147;28;19986;-74
2023/06/10 07:27:38;;;;;;;;;;;;;;;;;;5054088;28;19908;-74
2023/06/10 07:30:04;;;;;;;;;;;;;;;;;;5072444;28;19920;-74
2023/06/10 07:32:29;;;;;;;;;;;;;;;;;;5071259;28;19916;-74
2023/06/10 07:34:55;;;;;;;;;;;;;;;;;;5053852;28;20362;-74
2023/06/10 07:37:20;;;;;;;;;;;;;;;;;;5071853;28;19923;-74
2023/06/10 07:39:45;;;;;;;;;;;;;;;;;;5073641;28;19924;-75
2023/06/10 07:42:11;;;;;;;;;;;;;;;;;;5062962;28;19916;-74
2023/06/10 07:44:36;;;;;;;;;;;;;;;;;;5071321;28;19912;-74
2023/06/10 07:47:01;;;;;;;;;;;;;;;;;;5052921;28;19919;-74
2023/06/10 07:49:26;;;;;;;;;;;;;;;;;;5063587;28;19913;-75
2023/06/10 07:51:51;;;;;;;;;;;;;;;;;;5070763;28;20393;-73
2023/06/10 07:54:17;;;;;;;;;;;;;;;;;;5070844;28;19958;-74
2023/06/10 07:56:42;;;;;;;;;;;;;;;;;;5071648;28;20006;-74
2023/06/10 07:59:07;;;;;;;;;;;;;;;;;;5052992;28;20095;-75
2023/06/10 08:01:33;;;;;;;;;;;;;;;;;;5053528;28;19961;-75
2023/06/10 08:03:58;;;;;;;;;;;;;;;;;;5071294;28;20003;-74
2023/06/10 08:06:23;;;;;;;;;;;;;;;;;;5065025;28;20419;-74
2023/06/10 08:08:48;;;;;;;;;;;;;;;;;;5056536;28;19912;-74
2023/06/10 08:11:14;;;;;;;;;;;;;;;;;;5051388;28;20307;-74
2023/06/10 08:13:39;;;;;;;;;;;;;;;;;;5051064;28;19924;-74
2023/06/10 08:16:05;;;;;;;;;;;;;;;;;;5051096;28;19913;-74
2023/06/10 08:18:30;;;;;;;;;;;;;;;;;;5051526;28;19920;-74
2023/06/10 08:20:55;;;;;;;;;;;;;;;;;;5051353;28;20003;-74
2023/06/10 08:23:21;;;;;;;;;;;;;;;;;;5072324;28;19913;-75
2023/06/10 08:25:46;;;;;;;;;;;;;;;;;;5083946;28;19916;-74
2023/06/10 08:28:11;;;;;;;;;;;;;;;;;;5082479;28;20446;-75
2023/06/10 08:30:36;;;;;;;;;;;;;;;;;;5071894;28;19928;-74
2023/06/10 08:33:02;;;;;;;;;;;;;;;;;;5069889;28;19912;-74
2023/06/10 08:35:27;;;;;;;;;;;;;;;;;;5070921;28;19940;-74
2023/06/10 08:37:52;;;;;;;;;;;;;;;;;;5070822;28;19912;-74
2023/06/10 08:40:17;;;;;;;;;;;;;;;;;;5036097;28;20020;-74
2023/06/10 08:42:44;;;;;;;;;;;;;;;;;;5070907;28;20784;-74
2023/06/10 08:45:09;;;;;;;;;;;;;;;;;;5070840;28;19967;-75
2023/06/10 08:47:36;;;;;;;;;;;;;;;;;;5070871;28;19916;-75
2023/06/10 08:50:03;;;;;;;;;;;;;;;;;;5069002;28;19908;-74
2023/06/10 08:52:29;;;;;;;;;;;;;;;;;;5069233;28;19920;-75
2023/06/10 08:54:54;;;;;;;;;;;;;;;;;;5070625;28;19973;-74
2023/06/10 08:57:21;;;;;;;;;;;;;;;;;;5070693;28;19913;-75
2023/06/10 08:59:46;;;;;;;;;;;;;;;;;;5070825;28;19912;-75
2023/06/10 09:02:11;;;;;;;;;;;;;;;;;;5070610;28;19935;-74
2023/06/10 09:04:37;;;;;;;;;;;;;;;;;;5069682;28;20752;-74
2023/06/10 09:07:02;;;;;;;;;;;;;;;;;;5070416;28;19912;-76
2023/06/10 09:09:27;;;;;;;;;;;;;;;;;;5069878;28;19928;-76
2023/06/10 09:11:53;;;;;;;;;;;;;;;;;;5069435;28;20023;-74
2023/06/10 09:14:18;;;;;;;;;;;;;;;;;;5070309;28;19913;-74
2023/06/10 09:16:45;;;;;;;;;;;;;;;;;;5071753;28;20386;-75
2023/06/10 09:19:10;;;;;;;;;;;;;;;;;;5074417;28;19908;-74
2023/06/10 09:21:37;;;;;;;;;;;;;;;;;;5035460;28;19912;-75
2023/06/10 09:24:02;;;;;;;;;;;;;;;;;;5049974;28;20379;-74
2023/06/10 09:26:27;;;;;;;;;;;;;;;;;;5058971;28;19985;-74
2023/06/10 09:28:53;;;;;;;;;;;;;;;;;;5070082;28;19918;-74
2023/06/10 09:31:19;;;;;;;;;;;;;;;;;;5069571;28;19942;-73
2023/06/10 09:33:44;;;;;;;;;;;;;;;;;;5067695;28;19912;-74
2023/06/10 09:36:09;;;;;;;;;;;;;;;;;;5068160;28;19971;-73
2023/06/10 09:38:35;;;;;;;;;;;;;;;;;;5067548;28;20359;-75
2023/06/10 09:41:03;;;;;;;;;;;;;;;;;;5067797;28;19919;-74
2023/06/10 09:43:28;;;;;;;;;;;;;;;;;;5067403;28;19959;-75
2023/06/10 09:45:53;;;;;;;;;;;;;;;;;;5058170;28;19960;-74
2023/06/10 09:48:19;;;;;;;;;;;;;;;;;;5049312;28;20060;-74
2023/06/10 09:50:44;;;;;;;;;;;;;;;;;;5067381;28;19916;-74
2023/06/10 09:53:10;;;;;;;;;;;;;;;;;;5067681;28;20003;-75
2023/06/10 09:55:35;;;;;;;;;;;;;;;;;;5067577;28;19912;-75
2023/06/10 09:58:00;;;;;;;;;;;;;;;;;;5067330;28;19919;-75
2023/06/10 10:00:25;;;;;;;;;;;;;;;;;;5067231;28;19923;-74
2023/06/10 10:02:51;;;;;;;;;;;;;;;;;;5067772;28;20026;-74
2023/06/10 10:05:16;;;;;;;;;;;;;;;;;;5066753;28;19935;-74
2023/06/10 10:07:41;;;;;;;;;;;;;;;;;;5067339;28;19919;-75
2023/06/10 10:10:08;;;;;;;;;;;;;;;;;;5049206;28;20530;-74
2023/06/10 10:12:33;;;;;;;;;;;;;;;;;;5066970;28;20006;-74
2023/06/10 10:14:59;;;;;;;;;;;;;;;;;;5067662;28;20003;-75
2023/06/10 10:17:24;;;;;;;;;;;;;;;;;;5067206;28;19912;-74
2023/06/10 10:19:49;;;;;;;;;;;;;;;;;;5066932;28;19956;-74
2023/06/10 10:22:15;;;;;;;;;;;;;;;;;;5066827;28;19924;-74
2023/06/10 10:24:40;;;;;;;;;;;;;;;;;;5067101;28;19920;-75
2023/06/10 10:27:06;;;;;;;;;;;;;;;;;;5048916;28;19916;-74
2023/06/10 10:29:31;;;;;;;;;;;;;;;;;;5066875;28;19919;-74
2023/06/10 10:31:56;;;;;;;;;;;;;;;;;;5067137;28;19928;-75
2023/06/10 10:34:22;;;;;;;;;;;;;;;;;;5065855;28;19965;-74
2023/06/10 10:36:47;;;;;;;;;;;;;;;;;;5066323;28;19923;-74
2023/06/10 10:39:13;;;;;;;;;;;;;;;;;;5066964;28;20295;-74
2023/06/10 10:41:38;;;;;;;;;;;;;;;;;;5067089;28;19920;-73
2023/06/10 10:44:07;;;;;;;;;;;;;;;;;;5069176;28;19919;-74
2023/06/10 10:46:32;;;;;;;;;;;;;;;;;;5068929;28;19919;-74
2023/06/10 10:48:58;;;;;;;;;;;;;;;;;;5068939;28;19912;-74
2023/06/10 10:51:24;;;;;;;;;;;;;;;;;;5068957;28;19970;-73
2023/06/10 10:53:50;;;;;;;;;;;;;;;;;;5069239;28;20003;-74
2023/06/10 10:56:17;;;;;;;;;;;;;;;;;;5070709;28;20416;-74
2023/06/10 10:58:43;;;;;;;;;;;;;;;;;;5072206;28;19959;-75
2023/06/10 11:01:08;;;;;;;;;;;;;;;;;;5068370;28;19944;-74
2023/06/10 11:03:33;;;;;;;;;;;;;;;;;;5052256;28;19967;-74
2023/06/10 11:05:58;;;;;;;;;;;;;;;;;;5052419;28;19924;-73
2023/06/10 11:08:24;;;;;;;;;;;;;;;;;;5052147;28;20420;-74
2023/06/10 11:10:49;;;;;;;;;;;;;;;;;;5052101;28;19931;-74
2023/06/10 11:13:14;;;;;;;;;;;;;;;;;;5052132;28;20371;-75
2023/06/10 11:15:40;;;;;;;;;;;;;;;;;;5034084;28;19917;-74
2023/06/10 11:18:05;;;;;;;;;;;;;;;;;;5051860;28;20257;-74
2023/06/10 11:20:30;;;;;;;;;;;;;;;;;;5052003;28;19912;-74
2023/06/10 11:22:56;;;;;;;;;;;;;;;;;;5052481;28;19917;-74
2023/06/10 11:25:21;;;;;;;;;;;;;;;;;;5052092;28;19913;-73
2023/06/10 11:27:46;;;;;;;;;;;;;;;;;;5052009;28;19913;-74
2023/06/10 11:30:12;;;;;;;;;;;;;;;;;;5051702;28;20059;-73
2023/06/10 11:32:39;;;;;;;;;;;;;;;;;;5052126;28;19948;-73
2023/06/10 11:35:04;;;;;;;;;;;;;;;;;;5051877;28;19958;-74
2023/06/10 11:37:30;;;;;;;;;;;;;;;;;;5052013;28;20403;-74
2023/06/10 11:39:55;;;;;;;;;;;;;;;;;;5052046;28;20272;-74
2023/06/10 11:42:20;;;;;;;;;;;;;;;;;;5051653;28;19920;-74
2023/06/10 11:44:45;;;;;;;;;;;;;;;;;;5051320;28;19912;-73
2023/06/10 11:47:11;;;;;;;;;;;;;;;;;;5051657;28;19920;-75
2023/06/10 11:49:37;;;;;;;;;;;;;;;;;;5051619;28;19916;-74
2023/06/10 11:52:02;;;;;;;;;;;;;;;;;;5051088;28;20196;-74
2023/06/10 11:54:27;;;;;;;;;;;;;;;;;;5051680;28;19923;-72
2023/06/10 11:56:52;;;;;;;;;;;;;;;;;;5051799;28;20414;-74
2023/06/10 11:59:18;;;;;;;;;;;;;;;;;;5051360;28;19913;-74
2023/06/10 12:01:43;;;;;;;;;;;;;;;;;;5062174;28;19912;-75
2023/06/10 12:04:08;;;;;;;;;;;;;;;;;;5079475;28;20210;-75
2023/06/10 12:06:34;;;;;;;;;;;;;;;;;;5072740;28;19912;-73
2023/06/10 12:09:00;;;;;;;;;;;;;;;;;;5055442;28;20378;-75
2023/06/10 12:11:26;;;;;;;;;;;;;;;;;;5051374;28;19924;-74
2023/06/10 12:13:51;;;;;;;;;;;;;;;;;;5051117;28;19916;-75
2023/06/10 12:16:17;;;;;;;;;;;;;;;;;;5051337;28;20257;-74
2023/06/10 12:18:42;;;;;;;;;;;;;;;;;;5051074;28;19919;-73
2023/06/10 12:21:07;;;;;;;;;;;;;;;;;;5051438;28;19919;-74
2023/06/10 12:23:33;;;;;;;;;;;;;;;;;;5050991;28;19965;-74
2023/06/10 12:25:58;;;;;;;;;;;;;;;;;;5051076;28;19921;-73
2023/06/10 12:28:23;;;;;;;;;;;;;;;;;;5050809;28;20364;-72
2023/06/10 12:30:49;;;;;;;;;;;;;;;;;;5050636;28;20023;-75
2023/06/10 12:33:14;;;;;;;;;;;;;;;;;;5032847;28;19916;-74
2023/06/10 12:35:39;;;;;;;;;;;;;;;;;;5050605;28;19913;-75
2023/06/10 12:38:07;;;;;;;;;;;;;;;;;;5078050;28;19923;-74
2023/06/10 12:40:33;;;;;;;;;;;;;;;;;;5054666;28;19912;-76
2023/06/10 12:42:58;;;;;;;;;;;;;;;;;;5070673;28;20378;-74
2023/06/10 12:45:23;;;;;;;;;;;;;;;;;;5070615;28;20430;-74
2023/06/10 12:47:49;;;;;;;;;;;;;;;;;;5071115;28;19922;-75
2023/06/10 12:50:14;;;;;;;;;;;;;;;;;;5070370;28;20003;-75
2023/06/10 12:52:40;;;;;;;;;;;;;;;;;;5070701;28;19935;-75
2023/06/10 12:55:06;;;;;;;;;;;;;;;;;;5070061;28;19974;-75
2023/06/10 12:57:31;;;;;;;;;;;;;;;;;;5062744;28;20365;-75
2023/06/10 13:00:03;;;;;;;;;;;;;;;;;;5049281;28;19909;-76
2023/06/10 13:02:28;;;;;;;;;;;;;;;;;;5049823;28;19962;-76
2023/06/10 13:04:53;;;;;;;;;;;;;;;;;;5049336;28;19959;-78
2023/06/10 13:07:19;;;;;;;;;;;;;;;;;;5046027;28;19967;-77
2023/06/10 13:09:44;;;;;;;;;;;;;;;;;;5048052;28;19959;-78
2023/06/10 13:12:10;;;;;;;;;;;;;;;;;;5050634;28;19928;-76
2023/06/10 13:14:37;;;;;;;;;;;;;;;;;;5030969;28;20405;-76
2023/06/10 13:17:02;;;;;;;;;;;;;;;;;;5029965;28;19923;-75
2023/06/10 13:19:27;;;;;;;;;;;;;;;;;;5047368;28;19913;-76
2023/06/10 13:21:53;;;;;;;;;;;;;;;;;;5030462;28;20436;-75
2023/06/10 13:24:18;;;;;;;;;;;;;;;;;;5047964;28;19913;-76
2023/06/10 13:26:43;;;;;;;;;;;;;;;;;;5050755;28;19916;-77
2023/06/10 13:29:13;;;;;;;;;;;;;;;;;;5055566;28;19917;-76
2023/06/10 13:31:39;;;;;;;;;;;;;;;;;;5061711;28;19954;-76
2023/06/10 13:34:04;;;;;;;;;;;;;;;;;;5060018;28;20419;-76
2023/06/10 13:36:30;;;;;;;;;;;;;;;;;;5047665;28;19913;-76
2023/06/10 13:38:55;;;;;;;;;;;;;;;;;;5048480;28;19908;-76
2023/06/10 13:41:21;;;;;;;;;;;;;;;;;;5048098;28;19917;-77
2023/06/10 13:43:46;;;;;;;;;;;;;;;;;;5047980;28;20376;-76
2023/06/10 13:46:11;;;;;;;;;;;;;;;;;;5047588;28;19943;-78
2023/06/10 13:48:36;;;;;;;;;;;;;;;;;;5048069;28;19908;-75
2023/06/10 13:51:02;;;;;;;;;;;;;;;;;;5047846;28;19927;-77
2023/06/10 13:53:27;;;;;;;;;;;;;;;;;;5047284;28;19943;-76
2023/06/10 13:55:52;;;;;;;;;;;;;;;;;;5047882;28;19912;-76
2023/06/10 13:58:18;;;;;;;;;;;;;;;;;;5047459;28;20011;-78
2023/06/10 14:00:43;;;;;;;;;;;;;;;;;;5047028;28;20426;-76
2023/06/10 14:03:08;;;;;;;;;;;;;;;;;;5046956;28;20384;-75
2023/06/10 14:05:34;;;;;;;;;;;;;;;;;;5047051;28;19916;-75
2023/06/10 14:07:59;;;;;;;;;;;;;;;;;;5047553;28;19917;-76
2023/06/10 14:10:24;;;;;;;;;;;;;;;;;;5047721;28;20331;-76
2023/06/10 14:12:50;;;;;;;;;;;;;;;;;;5048265;28;19970;-75
2023/06/10 14:15:15;;;;;;;;;;;;;;;;;;5047321;28;19912;-75
2023/06/10 14:17:41;;;;;;;;;;;;;;;;;;5047105;28;19913;-77
2023/06/10 14:20:06;;;;;;;;;;;;;;;;;;5047163;28;19920;-75
2023/06/10 14:22:31;;;;;;;;;;;;;;;;;;5029041;28;19920;-75
2023/06/10 14:24:56;;;;;;;;;;;;;;;;;;5047324;28;19924;-77
2023/06/10 14:27:22;;;;;;;;;;;;;;;;;;5047216;28;19913;-75
2023/06/10 14:29:47;;;;;;;;;;;;;;;;;;5045402;28;19959;-75
2023/06/10 14:32:12;;;;;;;;;;;;;;;;;;5046807;28;20416;-76
2023/06/10 14:34:39;;;;;;;;;;;;;;;;;;5047277;28;20645;-76
2023/06/10 14:37:07;;;;;;;;;;;;;;;;;;5029283;28;20018;-77
2023/06/10 14:39:32;;;;;;;;;;;;;;;;;;5047388;28;19913;-76
2023/06/10 14:41:57;;;;;;;;;;;;;;;;;;5046875;28;19923;-76
2023/06/10 14:44:22;;;;;;;;;;;;;;;;;;5047189;28;19966;-76
2023/06/10 14:46:48;;;;;;;;;;;;;;;;;;5047068;28;19923;-75
2023/06/10 14:49:13;;;;;;;;;;;;;;;;;;5028963;28;19939;-75
2023/06/10 14:51:38;;;;;;;;;;;;;;;;;;5046819;28;19927;-75
2023/06/10 14:54:03;;;;;;;;;;;;;;;;;;5046906;28;19955;-76
2023/06/10 14:56:29;;;;;;;;;;;;;;;;;;5028963;28;20080;-75
2023/06/10 14:58:54;;;;;;;;;;;;;;;;;;5028775;28;20427;-75
2023/06/10 15:01:20;;;;;;;;;;;;;;;;;;5028710;28;19916;-75
2023/06/10 15:03:45;;;;;;;;;;;;;;;;;;5047105;28;19917;-76
2023/06/10 15:06:10;;;;;;;;;;;;;;;;;;5046032;28;19913;-75
2023/06/10 15:08:35;;;;;;;;;;;;;;;;;;5046691;28;19912;-76
2023/06/10 15:11:01;;;;;;;;;;;;;;;;;;5046539;28;19917;-77
2023/06/10 15:13:27;;;;;;;;;;;;;;;;;;5048983;28;19912;-75
2023/06/10 15:15:52;;;;;;;;;;;;;;;;;;5046302;28;20026;-76
2023/06/10 15:18:17;;;;;;;;;;;;;;;;;;5027972;28;19915;-76
2023/06/10 15:20:42;;;;;;;;;;;;;;;;;;5046680;28;19923;-75
2023/06/10 15:23:08;;;;;;;;;;;;;;;;;;5045255;28;20318;-77
2023/06/10 15:25:33;;;;;;;;;;;;;;;;;;5046434;28;20421;-75
2023/06/10 15:27:58;;;;;;;;;;;;;;;;;;5054209;28;20338;-75
2023/06/10 15:30:24;;;;;;;;;;;;;;;;;;5065861;28;19952;-76
2023/06/10 15:32:49;;;;;;;;;;;;;;;;;;5066346;28;19924;-75
2023/06/10 15:35:14;;;;;;;;;;;;;;;;;;5066189;28;19909;-75
2023/06/10 15:37:39;;;;;;;;;;;;;;;;;;5065956;28;19917;-76
2023/06/10 15:40:05;;;;;;;;;;;;;;;;;;5048388;28;19974;-76
2023/06/10 15:42:30;;;;;;;;;;;;;;;;;;5068401;28;20287;-76
2023/06/10 15:44:55;;;;;;;;;;;;;;;;;;5069892;28;19957;-76
2023/06/10 15:47:21;;;;;;;;;;;;;;;;;;5069578;28;19912;-76
2023/06/10 15:49:46;;;;;;;;;;;;;;;;;;5051744;28;19913;-77
2023/06/10 15:52:11;;;;;;;;;;;;;;;;;;5069467;28;19917;-76
2023/06/10 15:54:36;;;;;;;;;;;;;;;;;;5068985;28;20333;-76
2023/06/10 15:57:03;;;;;;;;;;;;;;;;;;5069412;28;19912;-75
2023/06/10 15:59:28;;;;;;;;;;;;;;;;;;5069594;28;19912;-76
2023/06/10 16:01:53;;;;;;;;;;;;;;;;;;5051734;28;19991;-76
2023/06/10 16:04:19;;;;;;;;;;;;;;;;;;5069854;28;20057;-76
2023/06/10 16:06:44;;;;;;;;;;;;;;;;;;5069421;28;19908;-75
2023/06/10 16:09:10;;;;;;;;;;;;;;;;;;5069392;28;19912;-75
2023/06/10 16:11:35;;;;;;;;;;;;;;;;;;5069147;28;19912;-75
2023/06/10 16:14:00;;;;;;;;;;;;;;;;;;5069380;28;19919;-77
2023/06/10 16:16:26;;;;;;;;;;;;;;;;;;5051406;28;20022;-76
2023/06/10 16:18:51;;;;;;;;;;;;;;;;;;5051109;28;19908;-76
2023/06/10 16:21:16;;;;;;;;;;;;;;;;;;5059009;28;19909;-75
2023/06/10 16:23:42;;;;;;;;;;;;;;;;;;5049102;28;19967;-76
2023/06/10 16:26:07;;;;;;;;;;;;;;;;;;5048950;28;19913;-75
2023/06/10 16:28:32;;;;;;;;;;;;;;;;;;5049193;28;19917;-75
2023/06/10 16:30:57;;;;;;;;;;;;;;;;;;5048546;28;19920;-75
2023/06/10 16:33:23;;;;;;;;;;;;;;;;;;5049301;28;19912;-75
2023/06/10 16:35:48;;;;;;;;;;;;;;;;;;5048933;28;19952;-76